createdAt,value
2023-05-15T00:00:53.852Z,0.67
2023-05-15T00:01:53.910Z,0.67
2023-05-15T00:02:54.072Z,0.67
2023-05-15T00:03:54.105Z,0.66
2023-05-15T00:04:54.169Z,0.66
2023-05-15T00:05:54.128Z,0.67
2023-05-15T00:06:54.164Z,0.67
2023-05-15T00:07:54.241Z,0.67
2023-05-15T00:08:54.290Z,0.67
2023-05-15T00:09:54.344Z,0.66
2023-05-15T00:11:01.612Z,0.68
2023-05-15T00:11:55.391Z,0.68
2023-05-15T00:12:54.404Z,0.68
2023-05-15T00:13:54.373Z,0.67
2023-05-15T00:14:54.376Z,0.68
2023-05-15T00:15:54.349Z,0.68
2023-05-15T00:16:54.352Z,0.66
2023-05-15T00:17:54.395Z,0.67
2023-05-15T00:18:54.397Z,0.67
2023-05-15T00:19:54.333Z,0.67
2023-05-15T00:20:54.406Z,0.66
2023-05-15T00:21:54.479Z,0.66
2023-05-15T00:22:54.489Z,0.67
2023-05-15T00:23:54.539Z,0.68
2023-05-15T00:24:54.593Z,0.67
2023-05-15T00:25:54.642Z,0.66
2023-05-15T00:26:54.708Z,0.65
2023-05-15T00:27:54.750Z,0.68
2023-05-15T00:28:54.804Z,0.67
2023-05-15T00:29:54.862Z,0.66
2023-05-15T00:30:54.908Z,0.66
2023-05-15T00:31:55.112Z,0.65
2023-05-15T00:32:55.040Z,0.66
2023-05-15T00:33:55.087Z,0.67
2023-05-15T00:34:55.136Z,0.66
2023-05-15T00:35:55.196Z,0.66
2023-05-15T00:36:55.295Z,0.67
2023-05-15T00:37:55.321Z,0.66
2023-05-15T00:38:55.377Z,0.67
2023-05-15T00:39:55.441Z,0.67
2023-05-15T00:40:55.528Z,0.67
2023-05-15T00:41:55.550Z,0.66
2023-05-15T00:42:55.608Z,0.67
2023-05-15T00:43:55.665Z,0.67
2023-05-15T00:44:55.734Z,0.67
2023-05-15T00:45:55.778Z,0.68
2023-05-15T00:46:55.879Z,0.67
2023-05-15T00:47:55.933Z,0.66
2023-05-15T00:48:55.946Z,0.66
2023-05-15T00:49:56.012Z,0.67
2023-05-15T00:50:56.130Z,0.68
2023-05-15T00:51:56.129Z,0.67
2023-05-15T00:52:56.223Z,0.67
2023-05-15T00:53:56.319Z,0.67
2023-05-15T00:54:56.318Z,0.66
2023-05-15T00:55:56.383Z,0.68
2023-05-15T00:56:56.443Z,0.67
2023-05-15T00:57:56.506Z,0.66
2023-05-15T00:58:56.550Z,0.68
2023-05-15T00:59:56.604Z,0.67
2023-05-15T01:00:56.672Z,0.65
2023-05-15T01:01:56.771Z,0.66
2023-05-15T01:02:56.877Z,0.67
2023-05-15T01:03:56.835Z,0.68
2023-05-15T01:04:56.893Z,0.67
2023-05-15T01:05:56.961Z,0.67
2023-05-15T01:06:57.016Z,0.67
2023-05-15T01:07:57.076Z,0.67
2023-05-15T01:08:57.153Z,0.67
2023-05-15T01:09:57.195Z,0.67
2023-05-15T01:10:57.258Z,0.66
2023-05-15T01:11:57.306Z,0.66
2023-05-15T01:12:57.353Z,0.66
2023-05-15T01:13:57.418Z,0.66
2023-05-15T01:14:57.556Z,0.66
2023-05-15T01:15:57.531Z,0.66
2023-05-15T01:16:57.590Z,0.67
2023-05-15T01:17:57.672Z,0.66
2023-05-15T01:18:57.795Z,0.67
2023-05-15T01:19:57.849Z,0.67
2023-05-15T01:20:57.815Z,0.66
2023-05-15T01:21:57.869Z,0.68
2023-05-15T01:22:57.936Z,0.67
2023-05-15T01:23:57.997Z,0.67
2023-05-15T01:24:58.058Z,0.67
2023-05-15T01:25:58.113Z,0.65
2023-05-15T01:26:58.164Z,0.67
2023-05-15T01:27:58.225Z,0.66
2023-05-15T01:28:58.285Z,0.67
2023-05-15T01:29:58.346Z,0.67
2023-05-15T01:30:58.409Z,0.66
2023-05-15T01:31:58.579Z,0.66
2023-05-15T01:32:58.557Z,0.66
2023-05-15T01:33:58.593Z,0.66
2023-05-15T01:34:58.647Z,0.67
2023-05-15T01:35:58.704Z,0.66
2023-05-15T01:36:58.764Z,0.66
2023-05-15T01:37:58.820Z,0.66
2023-05-15T01:38:58.889Z,0.66
2023-05-15T01:39:58.944Z,0.65
2023-05-15T01:40:59.009Z,0.67
2023-05-15T01:41:59.081Z,0.66
2023-05-15T01:42:59.148Z,0.67
2023-05-15T01:43:59.208Z,0.66
2023-05-15T01:44:59.263Z,0.67
2023-05-15T01:45:59.369Z,0.66
2023-05-15T01:46:59.386Z,0.66
2023-05-15T01:47:59.500Z,0.66
2023-05-15T01:48:59.515Z,0.65
2023-05-15T01:49:59.582Z,0.65
2023-05-15T01:50:59.640Z,0.66
2023-05-15T01:51:59.701Z,0.66
2023-05-15T01:52:59.773Z,0.66
2023-05-15T01:53:59.828Z,0.65
2023-05-15T01:54:59.877Z,0.66
2023-05-15T01:55:59.964Z,0.65
2023-05-15T01:57:00.104Z,0.66
2023-05-15T01:58:00.109Z,0.65
2023-05-15T01:59:00.129Z,0.65
2023-05-15T02:00:00.202Z,0.66
2023-05-15T02:01:00.265Z,0.66
2023-05-15T02:02:00.371Z,0.67
2023-05-15T02:03:00.516Z,0.67
2023-05-15T02:04:00.600Z,0.66
2023-05-15T02:05:00.502Z,0.65
2023-05-15T02:06:00.571Z,0.66
2023-05-15T02:07:00.623Z,0.65
2023-05-15T02:08:00.691Z,0.66
2023-05-15T02:09:00.756Z,0.65
2023-05-15T02:10:00.892Z,0.68
2023-05-15T02:11:00.906Z,0.67
2023-05-15T02:12:00.947Z,0.65
2023-05-15T02:13:01.003Z,0.66
2023-05-15T02:14:01.086Z,0.65
2023-05-15T02:15:01.134Z,0.65
2023-05-15T02:16:01.268Z,0.64
2023-05-15T02:17:01.264Z,0.64
2023-05-15T02:18:01.345Z,0.66
2023-05-15T02:19:01.458Z,0.66
2023-05-15T02:20:01.431Z,0.66
2023-05-15T02:21:01.507Z,0.66
2023-05-15T02:22:01.563Z,0.67
2023-05-15T02:23:01.623Z,0.65
2023-05-15T02:24:01.686Z,0.66
2023-05-15T02:25:01.792Z,0.65
2023-05-15T02:26:01.817Z,0.67
2023-05-15T02:27:01.899Z,0.66
2023-05-15T02:28:01.949Z,0.65
2023-05-15T02:29:02.007Z,0.66
2023-05-15T02:30:02.082Z,0.66
2023-05-15T02:31:02.122Z,0.65
2023-05-15T02:32:02.223Z,0.66
2023-05-15T02:33:02.269Z,0.66
2023-05-15T02:34:02.325Z,0.66
2023-05-15T02:35:02.379Z,0.67
2023-05-15T02:36:02.448Z,0.66
2023-05-15T02:37:02.530Z,0.66
2023-05-15T02:38:02.577Z,0.65
2023-05-15T02:39:02.650Z,0.67
2023-05-15T02:40:02.705Z,0.65
2023-05-15T02:41:02.765Z,0.67
2023-05-15T02:42:02.817Z,0.67
2023-05-15T02:43:02.886Z,0.65
2023-05-15T02:44:02.933Z,0.66
2023-05-15T02:45:03.010Z,0.66
2023-05-15T02:46:03.191Z,0.66
2023-05-15T02:47:03.143Z,0.66
2023-05-15T02:48:03.357Z,0.66
2023-05-15T02:49:03.260Z,0.66
2023-05-15T02:50:03.336Z,0.67
2023-05-15T02:51:03.390Z,0.66
2023-05-15T02:52:03.457Z,0.66
2023-05-15T02:53:03.535Z,0.65
2023-05-15T02:54:03.587Z,0.66
2023-05-15T02:55:03.648Z,0.65
2023-05-15T02:56:03.712Z,0.65
2023-05-15T02:57:03.758Z,0.66
2023-05-15T02:58:03.829Z,0.65
2023-05-15T02:59:03.868Z,0.66
2023-05-15T03:00:03.937Z,0.65
2023-05-15T03:01:04.030Z,0.65
2023-05-15T03:02:04.060Z,0.66
2023-05-15T03:03:04.198Z,0.67
2023-05-15T03:04:04.214Z,0.65
2023-05-15T03:05:04.245Z,0.65
2023-05-15T03:06:04.308Z,0.66
2023-05-15T03:07:04.367Z,0.65
2023-05-15T03:08:04.429Z,0.66
2023-05-15T03:09:04.489Z,0.66
2023-05-15T03:10:04.550Z,0.65
2023-05-15T03:11:05.420Z,0.66
2023-05-15T03:12:04.663Z,0.66
2023-05-15T03:13:04.717Z,0.66
2023-05-15T03:14:04.779Z,0.66
2023-05-15T03:15:04.834Z,0.66
2023-05-15T03:16:04.904Z,0.65
2023-05-15T03:17:04.978Z,0.66
2023-05-15T03:18:05.099Z,0.65
2023-05-15T03:19:05.144Z,0.65
2023-05-15T03:20:05.146Z,0.66
2023-05-15T03:21:05.193Z,0.65
2023-05-15T03:22:05.256Z,0.66
2023-05-15T03:23:05.320Z,0.67
2023-05-15T03:24:05.392Z,0.65
2023-05-15T03:25:05.452Z,0.66
2023-05-15T03:26:05.514Z,0.66
2023-05-15T03:27:05.573Z,0.67
2023-05-15T03:28:05.640Z,0.66
2023-05-15T03:29:05.701Z,0.65
2023-05-15T03:30:05.771Z,0.67
2023-05-15T03:31:05.855Z,0.65
2023-05-15T03:32:05.898Z,0.65
2023-05-15T03:33:05.985Z,0.66
2023-05-15T03:34:06.026Z,0.66
2023-05-15T03:35:06.076Z,0.66
2023-05-15T03:36:06.143Z,0.66
2023-05-15T03:37:06.203Z,0.66
2023-05-15T03:38:06.257Z,0.65
2023-05-15T03:39:06.307Z,0.65
2023-05-15T03:40:06.371Z,0.66
2023-05-15T03:41:06.429Z,0.66
2023-05-15T03:42:06.509Z,0.65
2023-05-15T03:43:06.541Z,0.65
2023-05-15T03:44:06.590Z,0.65
2023-05-15T03:45:06.656Z,0.66
2023-05-15T03:46:06.726Z,0.65
2023-05-15T03:47:06.757Z,0.66
2023-05-15T03:48:06.862Z,0.66
2023-05-15T03:49:06.888Z,0.66
2023-05-15T03:50:06.961Z,0.65
2023-05-15T03:51:07.006Z,0.66
2023-05-15T03:52:07.081Z,0.65
2023-05-15T03:53:07.121Z,0.66
2023-05-15T03:54:07.162Z,0.66
2023-05-15T03:55:07.234Z,0.64
2023-05-15T03:56:07.288Z,0.65
2023-05-15T03:57:07.330Z,0.64
2023-05-15T03:58:07.389Z,0.64
2023-05-15T03:59:07.455Z,0.65
2023-05-15T04:00:07.573Z,0.64
2023-05-15T04:01:07.599Z,0.65
2023-05-15T04:02:07.713Z,0.64
2023-05-15T04:03:07.777Z,0.65
2023-05-15T04:04:07.768Z,0.65
2023-05-15T04:05:07.867Z,0.67
2023-05-15T04:06:07.899Z,0.66
2023-05-15T04:07:07.984Z,0.64
2023-05-15T04:08:08.002Z,0.66
2023-05-15T04:09:08.061Z,0.66
2023-05-15T04:10:08.151Z,0.65
2023-05-15T04:11:08.167Z,0.65
2023-05-15T04:12:08.229Z,0.65
2023-05-15T04:13:08.291Z,0.66
2023-05-15T04:14:08.358Z,0.66
2023-05-15T04:15:08.419Z,0.65
2023-05-15T04:16:08.583Z,0.63
2023-05-15T04:17:08.582Z,0.65
2023-05-15T04:18:08.605Z,0.64
2023-05-15T04:19:08.699Z,0.64
2023-05-15T04:20:08.707Z,0.64
2023-05-15T04:21:08.786Z,0.64
2023-05-15T04:22:08.848Z,0.65
2023-05-15T04:23:08.900Z,0.65
2023-05-15T04:24:08.954Z,0.66
2023-05-15T04:25:09.021Z,0.64
2023-05-15T04:26:09.085Z,0.64
2023-05-15T04:27:09.165Z,0.65
2023-05-15T04:28:09.204Z,0.63
2023-05-15T04:29:09.276Z,0.62
2023-05-15T04:30:09.338Z,0.65
2023-05-15T04:31:09.403Z,0.64
2023-05-15T04:32:09.543Z,0.64
2023-05-15T04:33:09.641Z,0.64
2023-05-15T04:34:09.617Z,0.63
2023-05-15T04:35:09.668Z,0.64
2023-05-15T04:36:09.713Z,0.63
2023-05-15T04:37:09.781Z,0.64
2023-05-15T04:38:09.843Z,0.64
2023-05-15T04:39:09.904Z,0.64
2023-05-15T04:40:10.065Z,0.64
2023-05-15T04:41:10.024Z,0.63
2023-05-15T04:42:10.083Z,0.63
2023-05-15T04:43:10.143Z,0.65
2023-05-15T04:44:10.209Z,0.63
2023-05-15T04:45:10.302Z,0.61
2023-05-15T04:46:10.419Z,0.62
2023-05-15T04:47:10.407Z,0.61
2023-05-15T04:48:10.470Z,0.63
2023-05-15T04:49:10.574Z,0.61
2023-05-15T04:50:10.594Z,0.61
2023-05-15T04:51:10.659Z,0.61
2023-05-15T04:52:10.723Z,0.61
2023-05-15T04:53:10.782Z,0.62
2023-05-15T04:54:10.839Z,0.63
2023-05-15T04:55:10.904Z,0.62
2023-05-15T04:56:10.953Z,0.61
2023-05-15T04:57:11.020Z,0.61
2023-05-15T04:58:11.079Z,0.61
2023-05-15T04:59:11.179Z,0.62
2023-05-15T05:00:11.208Z,0.61
2023-05-15T05:01:11.298Z,0.61
2023-05-15T05:02:11.328Z,0.60
2023-05-15T05:03:11.492Z,0.60
2023-05-15T05:04:11.528Z,0.61
2023-05-15T05:05:11.495Z,0.59
2023-05-15T05:06:11.579Z,0.61
2023-05-15T05:07:11.614Z,0.61
2023-05-15T05:08:11.659Z,0.60
2023-05-15T05:09:11.723Z,0.60
2023-05-15T05:10:11.768Z,0.61
2023-05-15T05:11:11.831Z,0.60
2023-05-15T05:12:11.896Z,0.60
2023-05-15T05:13:11.941Z,0.60
2023-05-15T05:14:12.012Z,0.60
2023-05-15T05:15:12.067Z,0.59
2023-05-15T05:16:12.154Z,0.60
2023-05-15T05:17:12.199Z,0.60
2023-05-15T05:18:12.261Z,0.60
2023-05-15T05:19:12.397Z,0.56
2023-05-15T05:20:13.179Z,0.53
2023-05-15T05:21:12.380Z,0.56
2023-05-15T05:22:12.378Z,0.56
2023-05-15T05:23:12.372Z,0.57
2023-05-15T05:24:12.403Z,0.60
2023-05-15T05:25:12.362Z,0.70
2023-05-15T05:26:12.360Z,0.62
2023-05-15T05:27:12.360Z,0.61
2023-05-15T05:28:12.377Z,0.60
2023-05-15T05:29:12.372Z,0.60
2023-05-15T05:30:12.409Z,0.64
2023-05-15T05:31:12.440Z,0.64
2023-05-15T05:32:13.036Z,0.59
2023-05-15T05:33:12.501Z,0.57
2023-05-15T05:34:12.480Z,0.62
2023-05-15T05:35:12.504Z,0.65
2023-05-15T05:36:12.508Z,0.65
2023-05-15T05:37:12.543Z,0.64
2023-05-15T05:38:12.548Z,0.67
2023-05-15T05:39:12.552Z,0.66
2023-05-15T05:40:12.582Z,0.65
2023-05-15T05:41:12.593Z,0.66
2023-05-15T05:42:12.635Z,0.65
2023-05-15T05:43:12.642Z,0.63
2023-05-15T05:44:12.688Z,0.62
2023-05-15T05:45:12.685Z,0.62
2023-05-15T05:46:12.684Z,0.60
2023-05-15T05:47:12.702Z,0.61
2023-05-15T05:48:12.715Z,0.62
2023-05-15T05:49:12.690Z,0.58
2023-05-15T05:50:12.719Z,0.59
2023-05-15T05:51:12.778Z,0.54
2023-05-15T05:52:12.820Z,0.51
2023-05-15T05:53:12.888Z,0.50
2023-05-15T05:54:12.940Z,0.50
2023-05-15T05:55:12.999Z,0.50
2023-05-15T05:56:13.058Z,0.50
2023-05-15T05:57:13.118Z,0.51
2023-05-15T05:58:21.752Z,0.50
2023-05-15T05:59:14.180Z,0.50
2023-05-15T06:00:13.155Z,0.51
2023-05-15T06:01:13.150Z,0.52
2023-05-15T06:02:13.159Z,0.56
2023-05-15T06:03:13.246Z,0.62
2023-05-15T06:04:13.176Z,0.65
2023-05-15T06:05:13.120Z,0.65
2023-05-15T06:06:13.115Z,0.67
2023-05-15T06:07:13.151Z,0.69
2023-05-15T06:08:13.176Z,0.71
2023-05-15T06:09:13.249Z,0.71
2023-05-15T06:10:13.293Z,0.73
2023-05-15T06:11:13.340Z,0.73
2023-05-15T06:12:13.418Z,0.70
2023-05-15T06:13:13.469Z,0.69
2023-05-15T06:14:13.516Z,0.68
2023-05-15T06:15:13.578Z,0.69
2023-05-15T06:16:13.631Z,0.72
2023-05-15T06:17:13.732Z,0.69
2023-05-15T06:18:13.849Z,0.66
2023-05-15T06:19:13.849Z,0.61
2023-05-15T06:20:13.861Z,0.59
2023-05-15T06:21:13.929Z,0.67
2023-05-15T06:22:13.965Z,0.71
2023-05-15T06:23:14.015Z,0.77
2023-05-15T06:24:14.051Z,0.76
2023-05-15T06:25:14.086Z,0.74
2023-05-15T06:26:14.130Z,0.78
2023-05-15T06:27:14.160Z,0.80
2023-05-15T06:28:14.198Z,0.88
2023-05-15T06:29:14.298Z,0.88
2023-05-15T06:30:14.261Z,0.90
2023-05-15T06:31:14.326Z,0.92
2023-05-15T06:32:14.355Z,0.92
2023-05-15T06:33:14.405Z,0.92
2023-05-15T06:34:14.431Z,0.90
2023-05-15T06:35:14.456Z,0.89
2023-05-15T06:36:14.504Z,0.93
2023-05-15T06:37:14.520Z,0.93
2023-05-15T06:38:14.532Z,0.93
2023-05-15T06:39:14.546Z,0.92
2023-05-15T06:40:14.576Z,0.92
2023-05-15T06:41:14.599Z,0.92
2023-05-15T06:42:14.633Z,0.92
2023-05-15T06:43:14.661Z,0.91
2023-05-15T06:44:14.710Z,0.92
2023-05-15T06:45:14.761Z,0.95
2023-05-15T06:46:14.786Z,0.93
2023-05-15T06:47:14.886Z,0.92
2023-05-15T06:48:14.854Z,0.95
2023-05-15T06:49:14.826Z,0.94
2023-05-15T06:50:14.847Z,0.94
2023-05-15T06:51:14.870Z,0.95
2023-05-15T06:52:14.925Z,0.94
2023-05-15T06:53:14.917Z,0.97
2023-05-15T06:54:14.949Z,0.97
2023-05-15T06:55:14.983Z,0.97
2023-05-15T06:56:15.007Z,0.97
2023-05-15T06:57:15.139Z,0.97
2023-05-15T06:58:15.075Z,1.00
2023-05-15T06:59:15.102Z,1.00
2023-05-15T07:00:15.114Z,1.00
2023-05-15T07:01:15.158Z,0.99
2023-05-15T07:02:15.225Z,1.01
2023-05-15T07:03:15.201Z,0.98
2023-05-15T07:04:15.264Z,1.00
2023-05-15T07:05:15.404Z,1.02
2023-05-15T07:06:15.289Z,0.98
2023-05-15T07:07:15.327Z,1.00
2023-05-15T07:08:15.351Z,0.98
2023-05-15T07:09:15.389Z,1.00
2023-05-15T07:10:15.422Z,1.01
2023-05-15T07:11:15.470Z,1.01
2023-05-15T07:12:15.486Z,0.99
2023-05-15T07:13:15.673Z,1.00
2023-05-15T07:14:15.550Z,1.02
2023-05-15T07:15:15.578Z,1.01
2023-05-15T07:16:15.610Z,1.01
2023-05-15T07:17:16.629Z,1.02
2023-05-15T07:18:15.743Z,1.00
2023-05-15T07:19:15.741Z,1.00
2023-05-15T07:20:15.769Z,1.00
2023-05-15T07:21:15.800Z,1.01
2023-05-15T07:22:15.844Z,1.02
2023-05-15T07:23:15.896Z,1.01
2023-05-15T07:24:15.926Z,1.03
2023-05-15T07:25:17.132Z,1.04
2023-05-15T07:26:23.729Z,1.05
2023-05-15T07:27:16.990Z,1.06
2023-05-15T07:28:16.014Z,1.05
2023-05-15T07:29:16.317Z,1.06
2023-05-15T07:30:15.980Z,1.06
2023-05-15T07:31:15.992Z,1.08
2023-05-15T07:32:15.951Z,1.04
2023-05-15T07:33:15.944Z,1.05
2023-05-15T07:34:15.938Z,1.07
2023-05-15T07:35:15.974Z,1.05
2023-05-15T07:36:15.933Z,1.08
2023-05-15T07:37:17.013Z,1.06
2023-05-15T07:38:15.988Z,1.05
2023-05-15T07:39:15.994Z,1.03
2023-05-15T07:40:15.885Z,1.04
2023-05-15T07:41:15.885Z,1.06
2023-05-15T07:42:15.886Z,1.05
2023-05-15T07:43:15.884Z,1.03
2023-05-15T07:44:15.909Z,1.02
2023-05-15T07:45:16.199Z,1.04
2023-05-15T07:46:16.014Z,1.03
2023-05-15T07:47:16.028Z,1.03
2023-05-15T07:48:16.055Z,1.02
2023-05-15T07:49:16.110Z,1.02
2023-05-15T07:50:16.132Z,1.01
2023-05-15T07:51:16.148Z,1.01
2023-05-15T07:52:16.179Z,0.99
2023-05-15T07:53:16.207Z,0.99
2023-05-15T07:54:16.242Z,1.02
2023-05-15T07:55:16.285Z,1.01
2023-05-15T07:56:16.301Z,1.00
2023-05-15T07:57:16.333Z,0.99
2023-05-15T07:58:16.362Z,1.00
2023-05-15T07:59:16.395Z,1.00
2023-05-15T08:00:16.430Z,0.99
2023-05-15T08:01:16.469Z,1.02
2023-05-15T08:02:16.557Z,0.99
2023-05-15T08:03:16.646Z,0.98
2023-05-15T08:04:16.634Z,1.01
2023-05-15T08:05:16.602Z,0.99
2023-05-15T08:06:16.622Z,1.00
2023-05-15T08:07:16.670Z,1.00
2023-05-15T08:08:16.681Z,1.00
2023-05-15T08:09:17.566Z,0.99
2023-05-15T08:10:16.763Z,0.98
2023-05-15T08:11:16.791Z,0.97
2023-05-15T08:12:16.827Z,1.01
2023-05-15T08:13:16.857Z,0.97
2023-05-15T08:14:18.544Z,1.03
2023-05-15T08:15:16.994Z,1.08
2023-05-15T08:16:17.003Z,1.08
2023-05-15T08:17:17.030Z,1.05
2023-05-15T08:18:17.000Z,1.14
2023-05-15T08:19:17.214Z,1.21
2023-05-15T08:20:17.052Z,1.25
2023-05-15T08:21:17.083Z,1.28
2023-05-15T08:22:17.110Z,1.31
2023-05-15T08:23:18.100Z,1.23
2023-05-15T08:24:17.135Z,1.36
2023-05-15T08:25:17.154Z,1.46
2023-05-15T08:26:17.188Z,1.41
2023-05-15T08:27:17.217Z,1.44
2023-05-15T08:28:18.107Z,1.38
2023-05-15T08:29:17.285Z,1.40
2023-05-15T08:30:17.271Z,1.46
2023-05-15T08:31:17.313Z,1.45
2023-05-15T08:32:17.314Z,1.46
2023-05-15T08:33:17.662Z,1.52
2023-05-15T08:34:17.364Z,1.50
2023-05-15T08:35:17.391Z,1.51
2023-05-15T08:36:17.458Z,1.53
2023-05-15T08:37:17.424Z,1.53
2023-05-15T08:38:17.475Z,1.53
2023-05-15T08:39:18.105Z,1.53
2023-05-15T08:40:19.807Z,1.54
2023-05-15T08:41:25.945Z,1.54
2023-05-15T08:42:18.498Z,1.55
2023-05-15T08:43:17.480Z,1.56
2023-05-15T08:44:17.490Z,1.55
2023-05-15T08:45:17.474Z,1.58
2023-05-15T08:46:17.477Z,1.54
2023-05-15T08:47:17.453Z,1.58
2023-05-15T08:48:17.548Z,1.58
2023-05-15T08:49:17.464Z,1.53
2023-05-15T08:50:17.445Z,1.57
2023-05-15T08:51:17.436Z,1.52
2023-05-15T08:52:17.444Z,1.56
2023-05-15T08:53:17.422Z,1.53
2023-05-15T08:54:17.407Z,1.55
2023-05-15T08:55:17.402Z,1.53
2023-05-15T08:56:17.389Z,1.54
2023-05-15T08:57:17.393Z,1.52
2023-05-15T08:58:17.380Z,1.51
2023-05-15T08:59:17.371Z,1.54
2023-05-15T09:00:17.378Z,1.51
2023-05-15T09:01:17.383Z,1.47
2023-05-15T09:02:17.351Z,1.51
2023-05-15T09:03:17.425Z,1.49
2023-05-15T09:04:17.332Z,1.47
2023-05-15T09:05:17.345Z,1.51
2023-05-15T09:06:17.316Z,1.53
2023-05-15T09:07:17.291Z,1.50
2023-05-15T09:08:17.303Z,1.46
2023-05-15T09:09:17.297Z,1.48
2023-05-15T09:10:17.294Z,1.45
2023-05-15T09:11:17.282Z,1.47
2023-05-15T09:12:17.259Z,1.46
2023-05-15T09:13:17.260Z,1.46
2023-05-15T09:14:17.256Z,1.45
2023-05-15T09:15:17.242Z,1.50
2023-05-15T09:16:17.285Z,1.48
2023-05-15T09:17:17.229Z,1.43
2023-05-15T09:18:17.216Z,1.46
2023-05-15T09:19:17.259Z,1.44
2023-05-15T09:20:17.201Z,1.46
2023-05-15T09:21:17.206Z,1.43
2023-05-15T09:22:21.043Z,1.51
2023-05-15T09:23:17.237Z,1.29
2023-05-15T09:24:17.226Z,1.08
2023-05-15T09:25:17.217Z,0.96
2023-05-15T09:26:17.214Z,0.79
2023-05-15T09:27:18.205Z,0.79
2023-05-15T09:28:17.204Z,0.78
2023-05-15T09:29:18.282Z,0.82
2023-05-15T09:30:17.182Z,0.87
2023-05-15T09:31:17.215Z,0.85
2023-05-15T09:32:17.239Z,0.84
2023-05-15T09:33:17.165Z,0.79
2023-05-15T09:34:17.154Z,0.81
2023-05-15T09:35:17.151Z,0.87
2023-05-15T09:36:17.166Z,0.85
2023-05-15T09:37:17.146Z,0.80
2023-05-15T09:38:17.126Z,0.77
2023-05-15T09:39:17.155Z,0.86
2023-05-15T09:40:17.181Z,0.95
2023-05-15T09:41:17.201Z,1.09
2023-05-15T09:42:17.208Z,1.15
2023-05-15T09:43:17.227Z,1.23
2023-05-15T09:44:18.665Z,1.24
2023-05-15T09:45:17.454Z,1.33
2023-05-15T09:46:17.515Z,1.35
2023-05-15T09:47:17.642Z,1.42
2023-05-15T09:48:18.248Z,1.51
2023-05-15T09:49:17.535Z,1.55
2023-05-15T09:50:17.620Z,1.62
2023-05-15T09:51:17.623Z,1.67
2023-05-15T09:52:17.696Z,1.78
2023-05-15T09:54:17.751Z,1.92
2023-05-15T09:55:17.745Z,2.02
2023-05-15T09:56:17.745Z,2.28
2023-05-15T09:57:17.732Z,2.18
2023-05-15T09:58:17.732Z,2.23
2023-05-15T09:59:17.722Z,2.37
2023-05-15T10:00:17.789Z,2.38
2023-05-15T10:01:17.714Z,2.45
2023-05-15T10:02:17.687Z,2.57
2023-05-15T10:03:17.700Z,2.61
2023-05-15T10:04:17.668Z,2.72
2023-05-15T10:05:17.838Z,2.71
2023-05-15T10:06:17.707Z,2.87
2023-05-15T10:07:17.648Z,2.96
2023-05-15T10:08:17.662Z,3.02
2023-05-15T10:09:17.651Z,3.31
2023-05-15T10:10:18.160Z,3.57
2023-05-15T10:11:17.657Z,3.67
2023-05-15T10:12:17.628Z,3.73
2023-05-15T10:13:17.653Z,3.67
2023-05-15T10:14:17.672Z,3.70
2023-05-15T10:15:17.687Z,3.70
2023-05-15T10:16:17.733Z,3.75
2023-05-15T10:17:17.740Z,3.79
2023-05-15T10:18:17.774Z,3.85
2023-05-15T10:19:17.872Z,3.80
2023-05-15T10:20:17.828Z,3.84
2023-05-15T10:21:17.881Z,3.82
2023-05-15T10:22:17.918Z,3.95
2023-05-15T10:23:18.016Z,3.93
2023-05-15T10:24:18.036Z,3.95
2023-05-15T10:25:18.069Z,3.90
2023-05-15T10:26:18.118Z,3.96
2023-05-15T10:27:18.169Z,3.98
2023-05-15T10:28:18.232Z,4.02
2023-05-15T10:29:18.281Z,3.96
2023-05-15T10:30:18.353Z,4.02
2023-05-15T10:31:18.475Z,3.93
2023-05-15T10:32:18.463Z,4.10
2023-05-15T10:33:18.539Z,4.06
2023-05-15T10:34:18.602Z,4.06
2023-05-15T10:35:18.668Z,4.06
2023-05-15T10:36:18.979Z,4.05
2023-05-15T10:37:18.723Z,4.01
2023-05-15T10:38:18.773Z,4.08
2023-05-15T10:39:18.790Z,4.06
2023-05-15T10:40:18.819Z,4.02
2023-05-15T10:41:18.847Z,4.12
2023-05-15T10:42:18.851Z,4.14
2023-05-15T10:43:21.315Z,4.13
2023-05-15T10:44:18.990Z,4.11
2023-05-15T10:45:18.985Z,4.13
2023-05-15T10:46:19.032Z,4.04
2023-05-15T10:47:19.055Z,4.09
2023-05-15T10:48:18.994Z,4.07
2023-05-15T10:49:18.980Z,4.04
2023-05-15T10:50:18.975Z,3.97
2023-05-15T10:51:18.965Z,4.02
2023-05-15T10:52:18.964Z,4.02
2023-05-15T10:53:18.957Z,4.03
2023-05-15T10:54:18.953Z,4.02
2023-05-15T10:55:18.969Z,4.01
2023-05-15T10:56:18.981Z,3.96
2023-05-15T10:57:18.969Z,3.94
2023-05-15T10:58:18.951Z,3.98
2023-05-15T10:59:18.942Z,3.92
2023-05-15T11:00:18.972Z,3.98
2023-05-15T11:01:19.021Z,3.91
2023-05-15T11:02:18.932Z,3.97
2023-05-15T11:03:19.033Z,3.85
2023-05-15T11:04:19.004Z,3.88
2023-05-15T11:05:18.905Z,3.86
2023-05-15T11:06:18.909Z,3.82
2023-05-15T11:07:18.913Z,3.82
2023-05-15T11:08:18.906Z,3.84
2023-05-15T11:09:18.903Z,3.77
2023-05-15T11:10:18.913Z,3.81
2023-05-15T11:11:18.911Z,3.76
2023-05-15T11:12:18.908Z,3.70
2023-05-15T11:13:18.902Z,3.74
2023-05-15T11:14:18.907Z,3.74
2023-05-15T11:15:18.900Z,3.69
2023-05-15T11:16:18.909Z,3.75
2023-05-15T11:17:18.920Z,3.67
2023-05-15T11:18:18.932Z,3.62
2023-05-15T11:19:18.903Z,3.61
2023-05-15T11:20:18.887Z,3.58
2023-05-15T11:21:18.874Z,3.57
2023-05-15T11:22:18.948Z,3.57
2023-05-15T11:23:18.891Z,3.51
2023-05-15T11:24:18.881Z,3.55
2023-05-15T11:25:18.864Z,3.43
2023-05-15T11:26:18.874Z,3.48
2023-05-15T11:27:18.873Z,3.49
2023-05-15T11:28:18.878Z,3.43
2023-05-15T11:29:18.887Z,3.38
2023-05-15T11:30:18.887Z,3.45
2023-05-15T11:31:18.943Z,3.39
2023-05-15T11:32:18.888Z,3.37
2023-05-15T11:33:18.886Z,3.41
2023-05-15T11:34:18.956Z,3.34
2023-05-15T11:35:18.873Z,3.33
2023-05-15T11:36:18.878Z,3.44
2023-05-15T11:37:18.885Z,3.29
2023-05-15T11:38:18.868Z,3.23
2023-05-15T11:39:18.884Z,3.21
2023-05-15T11:40:18.883Z,3.26
2023-05-15T11:41:18.918Z,3.21
2023-05-15T11:42:18.863Z,3.27
2023-05-15T11:43:18.868Z,3.22
2023-05-15T11:44:18.861Z,3.19
2023-05-15T11:45:18.858Z,3.18
2023-05-15T11:46:18.883Z,3.12
2023-05-15T11:47:18.856Z,3.16
2023-05-15T11:48:18.887Z,3.17
2023-05-15T11:49:18.888Z,3.10
2023-05-15T11:50:18.867Z,3.15
2023-05-15T11:51:18.866Z,3.10
2023-05-15T11:52:18.874Z,3.08
2023-05-15T11:53:18.888Z,3.10
2023-05-15T11:54:18.896Z,3.05
2023-05-15T11:55:18.912Z,3.07
2023-05-15T11:56:18.923Z,3.07
2023-05-15T11:57:18.925Z,3.05
2023-05-15T11:58:18.927Z,3.04
2023-05-15T11:59:18.940Z,2.97
2023-05-15T12:00:18.961Z,3.00
2023-05-15T12:01:18.956Z,2.97
2023-05-15T12:02:18.956Z,2.93
2023-05-15T12:03:19.099Z,2.92
2023-05-15T12:04:19.129Z,2.94
2023-05-15T12:05:18.991Z,2.96
2023-05-15T12:06:18.987Z,2.88
2023-05-15T12:07:19.013Z,2.86
2023-05-15T12:08:19.038Z,2.86
2023-05-15T12:09:19.036Z,2.84
2023-05-15T12:10:19.032Z,2.80
2023-05-15T12:11:19.027Z,2.77
2023-05-15T12:12:19.043Z,2.78
2023-05-15T12:13:19.053Z,2.79
2023-05-15T12:14:19.064Z,2.79
2023-05-15T12:15:19.066Z,2.77
2023-05-15T12:16:19.104Z,2.78
2023-05-15T12:17:19.082Z,2.80
2023-05-15T12:18:19.110Z,2.75
2023-05-15T12:19:19.173Z,2.73
2023-05-15T12:20:19.096Z,2.76
2023-05-15T12:21:19.110Z,2.75
2023-05-15T12:22:19.115Z,2.75
2023-05-15T12:23:19.115Z,2.72
2023-05-15T12:24:19.117Z,2.63
2023-05-15T12:25:19.113Z,2.63
2023-05-15T12:26:19.118Z,2.62
2023-05-15T12:27:19.130Z,2.62
2023-05-15T12:28:19.122Z,2.60
2023-05-15T12:29:19.122Z,2.57
2023-05-15T12:30:19.120Z,2.58
2023-05-15T12:31:19.163Z,2.59
2023-05-15T12:32:19.209Z,2.58
2023-05-15T12:33:19.127Z,2.53
2023-05-15T12:34:19.134Z,2.50
2023-05-15T12:35:19.133Z,2.47
2023-05-15T12:36:19.139Z,2.54
2023-05-15T12:37:19.153Z,2.52
2023-05-15T12:38:19.162Z,2.49
2023-05-15T12:39:19.171Z,2.49
2023-05-15T12:40:19.183Z,2.48
2023-05-15T12:41:19.178Z,2.47
2023-05-15T12:42:19.195Z,2.49
2023-05-15T12:43:19.194Z,2.44
2023-05-15T12:44:19.217Z,2.43
2023-05-15T12:45:19.237Z,2.42
2023-05-15T12:46:19.246Z,2.42
2023-05-15T12:47:19.236Z,2.43
2023-05-15T12:48:19.236Z,2.41
2023-05-15T12:49:19.231Z,2.39
2023-05-15T12:50:19.256Z,2.38
2023-05-15T12:51:19.240Z,2.44
2023-05-15T12:52:19.232Z,2.34
2023-05-15T12:53:19.238Z,2.39
2023-05-15T12:54:19.251Z,2.35
2023-05-15T12:55:19.266Z,2.32
2023-05-15T12:56:19.261Z,2.33
2023-05-15T12:57:19.249Z,2.35
2023-05-15T12:58:19.266Z,2.34
2023-05-15T12:59:19.257Z,2.33
2023-05-15T13:00:19.263Z,2.29
2023-05-15T13:01:19.266Z,2.30
2023-05-15T13:02:21.241Z,2.30
2023-05-15T13:03:19.329Z,2.39
2023-05-15T13:04:19.254Z,2.34
2023-05-15T13:05:19.249Z,2.32
2023-05-15T13:06:19.729Z,2.32
2023-05-15T13:07:19.228Z,2.33
2023-05-15T13:08:19.232Z,2.30
2023-05-15T13:09:19.208Z,2.26
2023-05-15T13:10:19.223Z,2.23
2023-05-15T13:11:19.196Z,2.32
2023-05-15T13:12:19.215Z,2.24
2023-05-15T13:13:19.189Z,2.24
2023-05-15T13:14:19.171Z,2.25
2023-05-15T13:15:19.163Z,2.22
2023-05-15T13:16:19.172Z,2.22
2023-05-15T13:17:19.148Z,2.20
2023-05-15T13:18:19.137Z,2.19
2023-05-15T13:19:19.152Z,2.14
2023-05-15T13:20:19.128Z,2.11